Terminal Aerodrome Forecast
Issued by NWS Buffalo, NY

Home | Current Version | Previous Version | Text Only | Print | Product List | Glossary On
Versions: 1 2 3 4 5 6 7 8 9 10 11 12 13 14 15 16 17 18 19 20 21 22 23 24 25
757
FTUS41 KBUF 211509 AAA
TAFROC
TAF AMD
KROC 211509Z 2115/2212 34015KT 6SM -RA OVC007
     FM211900 30011KT P6SM VCSH OVC035
     FM220000 31011KT P6SM BKN140
     FM221100 03006KT P6SM OVC100=

USA.gov is the U.S. government's official web portal to all federal, state and local government web resources and services.